Time;durP1;ratioP1;P1;durP2;ratioP2;P2;SDS_P1;SDS_P2;PMS_P1;PMS_P2;Temp;Humidity;BMP_temperature;BMP_pressure;BME280_temperature;BME280_humidity;BME280_pressure;Samples;Min_cycle;Max_cycle;Signal;HPM_P1;HPM_P2
2022/08/19 00:00:36;;;;;;;12.50;6.25;;;28.90;63.50;;;;;;5052844;28;20112;-71
2022/08/19 00:03:04;;;;;;;10.07;5.78;;;28.90;63.50;;;;;;5052526;28;20056;-71
2022/08/19 00:05:31;;;;;;;7.03;6.32;;;28.90;63.40;;;;;;5051182;28;20517;-71
2022/08/19 00:07:57;;;;;;;8.90;6.13;;;28.80;63.40;;;;;;5052304;28;20041;-71
2022/08/19 00:10:24;;;;;;;7.13;5.72;;;28.90;63.40;;;;;;5052543;28;20048;-71
2022/08/19 00:12:50;;;;;;;6.15;5.55;;;28.90;63.40;;;;;;5052296;28;20032;-71
2022/08/19 00:15:20;;;;;;;9.55;6.38;;;28.80;63.40;;;;;;5050292;28;20102;-71
2022/08/19 00:17:46;;;;;;;8.13;6.07;;;28.70;63.40;;;;;;5052225;28;20025;-72
2022/08/19 00:20:16;;;;;;;13.05;6.30;;;28.70;63.40;;;;;;5052252;28;20017;-71
2022/08/19 00:22:44;;;;;;;9.52;5.95;;;28.90;63.40;;;;;;5052255;28;20041;-71
2022/08/19 00:25:11;;;;;;;13.27;6.63;;;28.80;63.40;;;;;;5052296;28;20025;-71
2022/08/19 00:27:37;;;;;;;10.57;5.93;;;28.90;63.40;;;;;;5052204;28;20021;-72
2022/08/19 00:30:05;;;;;;;9.13;6.65;;;28.70;63.40;;;;;;5051601;28;20045;-71
2022/08/19 00:32:31;;;;;;;9.98;6.47;;;28.80;63.50;;;;;;5052058;28;20036;-72
2022/08/19 00:34:57;;;;;;;8.75;7.05;;;28.80;63.60;;;;;;5051862;28;20109;-71
2022/08/19 00:37:25;;;;;;;9.98;6.65;;;28.70;63.80;;;;;;5051856;28;20029;-72
2022/08/19 00:39:52;;;;;;;9.98;6.72;;;28.80;63.80;;;;;;5051857;28;20033;-72
2022/08/19 00:42:20;;;;;;;8.57;6.50;;;28.60;63.90;;;;;;5051888;28;20052;-71
2022/08/19 00:44:47;;;;;;;15.07;6.60;;;28.70;63.90;;;;;;5051875;28;20025;-71
2022/08/19 00:47:13;;;;;;;9.45;7.45;;;28.70;63.90;;;;;;5051805;28;20116;-72
2022/08/19 00:49:50;;;;;;;9.63;6.18;;;28.80;63.90;;;;;;5051866;28;20032;-72
2022/08/19 00:52:23;;;;;;;8.52;5.78;;;28.80;63.90;;;;;;5051769;28;20121;-72
2022/08/19 00:54:51;;;;;;;10.40;6.13;;;28.80;63.90;;;;;;5051849;28;20474;-71
2022/08/19 00:57:20;;;;;;;6.00;5.40;;;28.70;63.90;;;;;;5051493;28;20029;-72
2022/08/19 00:59:51;;;;;;;11.95;6.25;;;28.70;63.90;;;;;;5048853;28;20663;-72
2022/08/19 01:02:17;;;;;;;8.93;6.13;;;28.70;63.90;;;;;;5049221;28;20041;-72
2022/08/19 01:04:43;;;;;;;7.38;6.22;;;28.80;63.80;;;;;;5032339;28;20422;-71
2022/08/19 01:07:09;;;;;;;9.90;5.90;;;28.80;63.80;;;;;;5046769;28;20033;-72
2022/08/19 01:09:35;;;;;;;9.48;6.40;;;28.80;63.80;;;;;;5028744;28;20427;-71
2022/08/19 01:12:02;;;;;;;11.02;6.78;;;28.80;63.70;;;;;;5029015;28;20095;-72
2022/08/19 01:14:28;;;;;;;7.97;6.25;;;28.80;63.80;;;;;;5029073;28;20099;-72
2022/08/19 01:16:56;;;;;;;7.93;6.03;;;28.80;63.80;;;;;;5035255;28;20041;-72
2022/08/19 01:19:30;;;;;;;7.15;6.18;;;28.70;63.80;;;;;;5032425;28;20037;-71
2022/08/19 01:22:12;;;;;;;5.63;4.80;;;28.70;63.80;;;;;;5032278;28;20120;-71
2022/08/19 01:24:38;;;;;;;11.35;6.60;;;28.70;63.80;;;;;;5048859;28;20075;-71
2022/08/19 01:27:05;;;;;;;12.18;6.50;;;28.70;63.70;;;;;;5041936;28;20049;-72
2022/08/19 01:29:32;;;;;;;13.10;6.38;;;28.90;63.70;;;;;;5028980;28;20164;-71
2022/08/19 01:31:59;;;;;;;9.27;5.80;;;28.70;63.60;;;;;;5028709;28;20099;-71
2022/08/19 01:34:25;;;;;;;6.88;5.95;;;28.70;63.70;;;;;;5028889;28;20461;-71
2022/08/19 01:36:51;;;;;;;8.43;6.05;;;28.70;63.90;;;;;;5029529;28;20056;-72
2022/08/19 01:39:21;;;;;;;9.40;6.15;;;28.60;63.90;;;;;;5031137;28;20083;-71
2022/08/19 01:41:47;;;;;;;10.13;6.03;;;28.70;64.00;;;;;;5033031;28;20457;-71
2022/08/19 01:44:14;;;;;;;9.90;6.45;;;28.70;64.00;;;;;;5035373;28;20036;-72
2022/08/19 01:46:42;;;;;;;8.18;7.35;;;28.80;64.00;;;;;;5043711;28;20028;-72
2022/08/19 01:49:08;;;;;;;12.68;6.18;;;28.70;64.00;;;;;;5054716;28;20035;-72
2022/08/19 01:51:34;;;;;;;9.32;6.63;;;28.70;63.90;;;;;;5055145;28;20029;-71
2022/08/19 01:54:01;;;;;;;8.35;6.43;;;28.70;64.00;;;;;;5054806;28;20154;-71
2022/08/19 01:56:27;;;;;;;14.55;6.47;;;28.70;64.00;;;;;;5053998;28;20021;-71
2022/08/19 01:59:04;;;;;;;8.85;6.28;;;28.70;64.00;;;;;;5054815;28;20107;-72
2022/08/19 02:01:34;;;;;;;10.82;6.32;;;28.70;64.00;;;;;;5054932;28;20474;-72
2022/08/19 02:04:00;;;;;;;7.65;6.55;;;28.90;63.90;;;;;;5053894;28;20029;-71
2022/08/19 02:06:27;;;;;;;10.07;6.25;;;28.80;64.00;;;;;;5054661;28;20032;-71
2022/08/19 02:08:54;;;;;;;8.77;6.50;;;28.80;63.90;;;;;;5054464;28;20037;-71
2022/08/19 02:11:26;;;;;;;9.60;6.32;;;28.70;63.80;;;;;;5053655;28;20033;-72
2022/08/19 02:13:53;;;;;;;8.40;6.35;;;28.80;63.80;;;;;;5054677;28;20065;-72
2022/08/19 02:16:20;;;;;;;8.40;5.65;;;28.70;63.90;;;;;;5054694;28;20025;-71
2022/08/19 02:18:48;;;;;;;9.07;5.68;;;28.80;63.90;;;;;;5054533;28;20394;-72
2022/08/19 02:21:16;;;;;;;11.05;6.53;;;28.70;63.80;;;;;;5054693;28;20162;-72
2022/08/19 02:23:42;;;;;;;13.27;6.72;;;28.60;63.80;;;;;;5054561;28;20055;-72
2022/08/19 02:26:09;;;;;;;5.88;4.53;;;28.70;63.80;;;;;;5054427;28;20021;-71
2022/08/19 02:28:36;;;;;;;6.75;5.43;;;28.70;63.70;;;;;;5054394;28;20033;-72
2022/08/19 02:31:03;;;;;;;12.98;5.53;;;28.70;63.60;;;;;;5054368;28;20055;-72
2022/08/19 02:33:30;;;;;;;8.75;6.40;;;28.70;63.70;;;;;;5053167;28;20048;-71
2022/08/19 02:35:56;;;;;;;7.47;5.88;;;28.50;63.80;;;;;;5052773;28;20025;-71
2022/08/19 02:38:25;;;;;;;9.55;7.00;;;28.60;63.90;;;;;;5054139;28;20442;-71
2022/08/19 02:41:17;;;;;;;10.60;6.95;;;28.70;63.90;;;;;;5054233;28;20130;-71
2022/08/19 02:43:43;;;;;;;13.43;6.47;;;28.60;63.90;;;;;;5052857;28;20053;-72
2022/08/19 02:46:26;;;;;;;9.52;6.70;;;28.60;63.90;;;;;;5053891;28;20045;-71
2022/08/19 02:48:54;;;;;;;;;;;28.60;63.90;;;;;;5054423;28;20033;-71
2022/08/19 02:51:36;;;;;;;6.90;4.40;;;28.60;64.00;;;;;;5053857;28;19913;-72
2022/08/19 02:54:03;;;;;;;7.70;6.07;;;28.60;64.00;;;;;;5053618;28;20478;-71
2022/08/19 02:56:30;;;;;;;6.95;6.13;;;28.70;64.00;;;;;;5052362;28;20087;-72
2022/08/19 02:58:57;;;;;;;7.22;5.80;;;28.70;64.00;;;;;;5053729;28;20044;-71
2022/08/19 03:01:32;;;;;;;7.60;5.45;;;28.70;64.00;;;;;;5053511;28;20087;-72
2022/08/19 03:04:01;;;;;;;16.55;6.25;;;28.80;63.90;;;;;;5053683;28;20038;-72
2022/08/19 03:06:27;;;;;;;9.27;6.28;;;28.70;63.90;;;;;;5053626;28;20067;-71
2022/08/19 03:08:55;;;;;;;10.77;6.88;;;28.70;63.90;;;;;;5052251;28;20378;-71
2022/08/19 03:11:24;;;;;;;15.50;6.03;;;28.70;63.80;;;;;;5052261;28;20104;-71
2022/08/19 03:13:51;;;;;;;9.10;6.38;;;28.70;63.80;;;;;;5053345;28;20083;-71
2022/08/19 03:16:18;;;;;;;9.38;6.47;;;28.70;63.80;;;;;;5053103;28;20029;-71
2022/08/19 03:18:45;;;;;;;10.13;7.20;;;28.80;63.90;;;;;;5053305;28;20029;-71
2022/08/19 03:21:21;;;;;;;7.45;6.40;;;28.50;63.90;;;;;;5053252;28;20097;-71
2022/08/19 03:23:47;;;;;;;7.93;6.28;;;28.60;63.80;;;;;;5053032;28;20083;-72
2022/08/19 03:26:14;;;;;;;9.40;5.53;;;28.80;63.80;;;;;;5053029;28;20037;-71
2022/08/19 03:28:42;;;;;;;15.40;6.65;;;28.60;63.80;;;;;;5052485;28;20041;-72
2022/08/19 03:31:12;;;;;;;10.30;6.38;;;28.70;63.80;;;;;;5052496;28;20402;-71
2022/08/19 03:33:38;;;;;;;10.73;6.07;;;28.50;63.70;;;;;;5052381;28;20128;-72
2022/08/19 03:36:09;;;;;;;5.78;5.22;;;28.50;63.70;;;;;;5052310;28;20029;-71
2022/08/19 03:38:38;;;;;;;6.63;4.88;;;28.60;63.70;;;;;;5051359;28;20445;-71
2022/08/19 03:41:10;;;;;;;7.05;5.85;;;28.50;63.40;;;;;;5065750;28;20044;-72
2022/08/19 03:43:38;;;;;;;13.75;6.65;;;28.60;63.60;;;;;;5073160;28;20081;-71
2022/08/19 03:46:10;;;;;;;14.23;6.93;;;28.60;63.50;;;;;;5072881;28;20078;-71
2022/08/19 03:48:39;;;;;;;8.70;6.47;;;28.60;63.40;;;;;;5072537;28;20036;-71
2022/08/19 03:51:06;;;;;;;7.40;5.88;;;28.60;63.50;;;;;;5072729;28;20036;-73
2022/08/19 03:53:34;;;;;;;6.50;5.88;;;28.60;63.50;;;;;;5072855;28;20710;-73
2022/08/19 03:56:01;;;;;;;7.22;6.53;;;28.50;62.20;;;;;;5072869;28;20028;-73
2022/08/19 03:58:29;;;;;;;13.77;7.10;;;28.50;60.50;;;;;;5072495;28;20113;-74
2022/08/19 04:00:56;;;;;;;10.13;7.60;;;28.40;59.60;;;;;;5055322;28;20073;-72
2022/08/19 04:03:24;;;;;;;11.77;7.85;;;28.30;60.40;;;;;;5052447;28;20039;-71
2022/08/19 04:05:50;;;;;;;11.38;8.20;;;28.30;60.90;;;;;;5050905;28;20033;-73
2022/08/19 04:08:19;;;;;;;9.50;8.00;;;28.30;60.50;;;;;;5052474;28;20036;-72
2022/08/19 04:10:47;;;;;;;9.60;7.63;;;28.30;60.10;;;;;;5052376;28;20040;-71
2022/08/19 04:13:15;;;;;;;12.85;8.82;;;28.30;61.10;;;;;;5052415;28;20106;-70
2022/08/19 04:15:42;;;;;;;10.52;8.55;;;28.60;63.00;;;;;;5052273;28;20048;-71
2022/08/19 04:18:10;;;;;;;9.90;8.07;;;29.00;66.10;;;;;;5052287;28;20124;-70
2022/08/19 04:20:46;;;;;;;10.70;7.68;;;29.20;65.80;;;;;;5050948;28;20087;-71
2022/08/19 04:23:13;;;;;;;10.25;8.02;;;29.00;63.10;;;;;;5052258;28;20032;-72
2022/08/19 04:25:43;;;;;;;10.77;8.27;;;29.00;62.60;;;;;;5052141;28;20710;-71
2022/08/19 04:28:11;;;;;;;11.65;8.90;;;29.00;61.80;;;;;;5052139;28;20129;-71
2022/08/19 04:30:43;;;;;;;9.55;7.68;;;28.80;61.20;;;;;;5052032;28;20033;-73
2022/08/19 04:33:11;;;;;;;9.53;8.10;;;28.90;61.20;;;;;;5052313;28;20033;-72
2022/08/19 04:35:43;;;;;;;14.73;8.35;;;28.90;61.20;;;;;;5051895;28;20112;-72
2022/08/19 04:38:09;;;;;;;12.18;7.68;;;28.80;61.30;;;;;;5051908;28;20040;-72
2022/08/19 04:43:29;;;;;;;14.60;7.90;;;28.90;61.40;;;;;;5051919;28;20036;-73
2022/08/19 04:45:55;;;;;;;14.88;8.07;;;28.80;61.50;;;;;;5051812;28;20061;-72
2022/08/19 04:48:26;;;;;;;10.90;4.38;;;28.90;61.40;;;;;;5051667;28;20025;-76
2022/08/19 04:50:57;;;;;;;6.03;5.25;;;28.80;62.30;;;;;;5051360;28;20466;-76
2022/08/19 04:53:29;;;;;;;8.93;5.97;;;28.80;60.40;;;;;;5051908;28;20035;-76
2022/08/19 04:56:03;;;;;;;9.30;6.38;;;28.70;59.50;;;;;;5051514;28;20043;-75
2022/08/19 04:58:29;;;;;;;5.72;4.95;;;28.80;59.60;;;;;;5051432;28;20037;-73
2022/08/19 05:00:55;;;;;;;10.18;6.57;;;28.80;60.20;;;;;;5051526;28;20033;-74
2022/08/19 05:03:21;;;;;;;6.50;4.60;;;28.60;60.30;;;;;;5051590;28;20396;-75
2022/08/19 05:05:48;;;;;;;5.85;3.97;;;28.70;60.40;;;;;;5051232;28;20033;-75
2022/08/19 05:08:21;;;;;;;6.78;5.20;;;28.70;60.60;;;;;;5051653;28;20067;-72
2022/08/19 05:10:49;;;;;;;11.85;7.22;;;28.80;61.40;;;;;;5051135;28;20719;-73
2022/08/19 05:13:18;;;;;;;6.25;3.95;;;28.80;62.40;;;;;;5051166;28;20371;-73
2022/08/19 05:15:52;;;;;;;7.18;5.00;;;28.70;62.80;;;;;;5049209;28;20033;-72
2022/08/19 05:23:57;;;;;;;13.98;8.20;;;28.90;63.50;;;;;;5045510;28;20024;-73
2022/08/19 05:26:25;;;;;;;11.57;7.80;;;28.80;63.90;;;;;;5050199;28;20043;-74
2022/08/19 05:28:53;;;;;;;12.93;9.10;;;28.90;63.80;;;;;;5050177;28;20013;-74
2022/08/19 05:31:19;;;;;;;13.43;8.18;;;28.90;63.00;;;;;;5049097;28;20083;-75
2022/08/19 05:33:45;;;;;;;14.32;8.45;;;28.80;62.90;;;;;;5049197;28;20040;-72
2022/08/19 05:36:12;;;;;;;9.45;6.75;;;28.90;63.00;;;;;;5050071;28;20029;-72
2022/08/19 05:38:38;;;;;;;17.38;8.18;;;28.80;62.90;;;;;;5050264;28;20784;-79
2022/08/19 05:41:13;;;;;;;10.88;7.20;;;28.80;63.50;;;;;;5049940;28;20208;-74
2022/08/19 05:43:39;;;;;;;8.93;7.60;;;28.90;63.70;;;;;;5048646;28;20371;-71
2022/08/19 05:46:06;;;;;;;10.40;7.53;;;28.90;62.50;;;;;;5050456;28;20041;-72
2022/08/19 05:48:33;;;;;;;9.90;7.20;;;28.90;62.30;;;;;;5049683;28;20025;-73
2022/08/19 05:51:05;;;;;;;10.07;7.47;;;28.80;62.10;;;;;;5051114;28;20064;-73
2022/08/19 05:53:33;;;;;;;9.73;7.30;;;28.80;61.80;;;;;;5049803;28;20063;-78
2022/08/19 05:56:08;;;;;;;13.75;7.30;;;28.80;61.10;;;;;;5050997;28;20047;-71
2022/08/19 05:58:36;;;;;;;9.43;6.65;;;28.90;61.10;;;;;;5050721;28;20036;-71
2022/08/19 06:01:05;;;;;;;8.52;6.68;;;28.90;61.40;;;;;;5056162;28;20032;-75
2022/08/19 06:03:37;;;;;;;7.78;6.57;;;28.70;61.40;;;;;;5080632;28;20036;-73
2022/08/19 06:06:07;;;;;;;9.00;6.55;;;28.70;60.30;;;;;;5055431;28;20072;-75
2022/08/19 06:08:35;;;;;;;10.98;6.18;;;28.80;60.40;;;;;;5070167;28;20088;-77
2022/08/19 06:11:22;;;;;;;15.50;6.78;;;28.80;60.20;;;;;;5048563;28;20107;-75
2022/08/19 06:13:52;;;;;;;10.60;7.50;;;28.70;59.80;;;;;;5062427;28;20136;-73
2022/08/19 06:16:22;;;;;;;11.88;6.85;;;28.60;59.90;;;;;;5065772;28;20040;-75
2022/08/19 06:18:56;;;;;;;10.82;6.43;;;28.60;60.20;;;;;;5066494;28;20156;-75
2022/08/19 06:21:25;;;;;;;7.80;6.05;;;28.50;60.40;;;;;;5065165;28;20748;-76
2022/08/19 06:23:52;;;;;;;11.38;6.57;;;28.70;60.40;;;;;;5067678;28;20070;-74
2022/08/19 06:26:19;;;;;;;16.30;7.10;;;28.60;60.50;;;;;;5063262;28;20045;-81
2022/08/19 06:28:46;;;;;;;10.73;6.70;;;28.80;60.10;;;;;;5070517;28;20118;-76
2022/08/19 06:31:17;;;;;;;7.80;6.43;;;28.80;60.40;;;;;;5066931;28;20669;-77
2022/08/19 06:33:44;;;;;;;9.13;6.35;;;28.80;60.30;;;;;;5065900;28;20067;-76
2022/08/19 06:36:31;;;;;;;9.90;7.03;;;28.80;60.40;;;;;;5060435;28;20033;-77
2022/08/19 06:38:58;;;;;;;8.73;6.38;;;28.90;60.20;;;;;;5056910;28;20492;-75
2022/08/19 06:41:25;;;;;;;8.05;6.40;;;28.90;60.30;;;;;;5061016;28;20048;-78
2022/08/19 06:43:52;;;;;;;11.60;6.72;;;28.80;60.20;;;;;;5060172;28;20032;-76
2022/08/19 06:46:19;;;;;;;11.05;7.47;;;28.90;60.30;;;;;;5059531;28;20048;-76
2022/08/19 06:48:46;;;;;;;12.05;5.70;;;29.00;59.90;;;;;;5060763;28;20545;-76
2022/08/19 06:51:18;;;;;;;10.75;6.50;;;28.90;60.10;;;;;;5062301;28;20119;-80
2022/08/19 06:53:48;;;;;;;11.23;6.60;;;28.90;59.60;;;;;;5058991;28;20021;-79
2022/08/19 06:56:21;;;;;;;11.57;6.50;;;29.00;60.30;;;;;;5056502;28;20041;-80
2022/08/19 06:58:52;;;;;;;;;;;28.90;60.10;;;;;;5062946;28;21428;-79
2022/08/19 07:01:19;;;;;;;12.95;6.35;;;28.80;60.30;;;;;;5069712;28;19962;-76
2022/08/19 07:03:46;;;;;;;10.63;5.75;;;29.00;61.10;;;;;;5070653;28;20064;-75
2022/08/19 07:06:17;;;;;;;9.38;5.43;;;29.00;61.10;;;;;;5057133;28;20025;-74
2022/08/19 07:08:46;;;;;;;7.07;6.32;;;29.00;61.00;;;;;;5054023;28;20103;-73
2022/08/19 07:11:17;;;;;;;8.32;5.65;;;28.90;60.70;;;;;;5053569;28;20037;-74
2022/08/19 07:13:44;;;;;;;9.65;6.30;;;29.00;61.10;;;;;;5053397;28;20496;-74
2022/08/19 07:16:14;;;;;;;7.45;6.00;;;29.00;61.10;;;;;;5052502;28;20039;-73
2022/08/19 07:18:41;;;;;;;8.68;5.90;;;29.00;61.00;;;;;;5053293;28;20047;-74
2022/08/19 07:21:13;;;;;;;8.88;5.68;;;28.90;60.40;;;;;;5053178;28;20044;-73
2022/08/19 07:23:40;;;;;;;11.05;6.10;;;29.00;60.90;;;;;;5053575;28;20021;-75
2022/08/19 07:26:23;;;;;;;9.90;6.30;;;29.00;60.80;;;;;;5060269;28;20396;-81
2022/08/19 07:28:50;;;;;;;14.57;6.85;;;29.10;60.80;;;;;;5060530;28;20087;-79
2022/08/19 07:31:19;;;;;;;8.02;6.40;;;28.90;60.20;;;;;;5053003;28;20041;-71
2022/08/19 07:33:47;;;;;;;8.68;6.50;;;28.90;60.30;;;;;;5053183;28;20508;-76
2022/08/19 07:36:16;;;;;;;8.75;6.15;;;29.00;61.30;;;;;;5055559;28;20028;-71
2022/08/19 07:38:47;;;;;;;6.90;6.20;;;28.90;60.90;;;;;;5052061;28;20033;-69
2022/08/19 07:41:18;;;;;;;12.23;5.82;;;28.90;61.00;;;;;;5071427;28;20080;-69
2022/08/19 07:43:45;;;;;;;9.98;6.50;;;28.80;60.90;;;;;;5073143;28;20032;-70
2022/08/19 07:46:13;;;;;;;6.47;5.03;;;28.90;61.00;;;;;;5071815;28;20046;-70
2022/08/19 07:48:41;;;;;;;6.82;5.07;;;28.90;61.00;;;;;;5072795;28;20653;-70
2022/08/19 07:51:10;;;;;;;8.27;4.97;;;28.80;60.90;;;;;;5057927;28;20544;-70
2022/08/19 07:53:37;;;;;;;12.43;5.93;;;28.80;60.90;;;;;;5055947;28;20040;-74
2022/08/19 07:56:05;;;;;;;6.43;5.82;;;29.00;61.50;;;;;;5073042;28;20024;-74
2022/08/19 07:58:35;;;;;;;5.18;4.53;;;28.80;60.90;;;;;;5061008;28;20117;-74
2022/08/19 08:01:01;;;;;;;8.40;6.07;;;28.90;60.90;;;;;;5052607;28;20531;-73
2022/08/19 08:09:15;;;;;;;8.98;5.72;;;29.00;61.90;;;;;;5035156;28;20051;-76
2022/08/19 08:11:49;;;;;;;6.28;3.80;;;28.90;61.50;;;;;;5052651;28;20476;-74
2022/08/19 08:14:22;;;;;;;9.40;6.30;;;28.80;62.30;;;;;;5051524;28;20052;-75
2022/08/19 08:16:50;;;;;;;14.63;5.50;;;29.00;62.80;;;;;;5051226;28;20127;-71
2022/08/19 08:19:17;;;;;;;9.35;5.55;;;28.90;63.00;;;;;;5052331;28;20067;-71
2022/08/19 08:21:43;;;;;;;10.32;5.47;;;29.10;63.90;;;;;;5062378;28;20384;-70
2022/08/19 08:24:10;;;;;;;9.50;5.80;;;29.00;63.80;;;;;;5059674;28;20028;-74
2022/08/19 08:26:36;;;;;;;10.30;4.38;;;29.00;63.50;;;;;;5062571;28;20107;-75
2022/08/19 08:29:02;;;;;;;5.45;4.93;;;29.00;62.90;;;;;;5058849;28;20032;-73
2022/08/19 08:31:28;;;;;;;10.27;6.20;;;29.00;63.00;;;;;;5068621;28;20556;-72
2022/08/19 08:33:55;;;;;;;4.43;4.05;;;29.00;63.00;;;;;;5072098;28;20107;-73
2022/08/19 08:36:21;;;;;;;4.75;4.00;;;29.00;63.10;;;;;;5072179;28;20060;-72
2022/08/19 08:38:47;;;;;;;4.78;4.20;;;29.00;63.00;;;;;;5072181;28;20063;-72
2022/08/19 08:41:19;;;;;;;12.25;4.95;;;29.00;63.00;;;;;;5071779;28;20075;-72
2022/08/19 08:43:47;;;;;;;3.80;3.42;;;29.00;62.50;;;;;;5066657;28;20083;-71
2022/08/19 08:46:38;;;;;;;5.75;5.25;;;29.10;62.50;;;;;;5051666;28;20437;-72
2022/08/19 08:49:08;;;;;;;9.13;5.05;;;29.00;62.00;;;;;;5051671;28;20025;-73
2022/08/19 08:51:43;;;;;;;4.68;3.05;;;29.10;65.60;;;;;;5051382;28;20025;-72
2022/08/19 08:54:12;;;;;;;7.03;6.10;;;29.20;64.90;;;;;;5051675;28;20041;-72
2022/08/19 08:56:41;;;;;;;8.90;5.45;;;29.30;63.60;;;;;;5047553;28;20564;-71
2022/08/19 08:59:32;;;;;;;4.95;4.13;;;29.20;62.00;;;;;;5062554;28;20040;-72
2022/08/19 09:01:58;;;;;;;9.07;4.18;;;29.20;61.10;;;;;;5066542;28;20044;-72
2022/08/19 09:04:24;;;;;;;6.30;4.30;;;29.20;61.50;;;;;;5057313;28;20029;-72
2022/08/19 09:07:27;;;;;;;5.57;4.68;;;29.30;62.00;;;;;;5058851;28;20056;-71
2022/08/19 09:10:12;;;;;;;5.55;4.05;;;29.20;61.50;;;;;;5058165;28;20048;-72
2022/08/19 09:12:54;;;;;;;8.20;4.70;;;29.20;62.00;;;;;;5051656;28;20627;-73
2022/08/19 09:15:31;;;;;;;4.97;4.47;;;29.20;61.80;;;;;;5069021;28;20059;-72
2022/08/19 09:18:01;;;;;;;8.55;3.90;;;29.20;61.80;;;;;;5058469;28;20770;-72
2022/08/19 09:20:27;;;;;;;8.85;4.22;;;29.20;62.00;;;;;;5012626;28;20079;-72
2022/08/19 09:22:53;;;;;;;5.38;3.78;;;29.20;61.90;;;;;;5039344;28;20066;-70
2022/08/19 09:25:22;;;;;;;7.30;3.50;;;29.30;61.80;;;;;;5036166;28;20538;-71
2022/08/19 09:27:50;;;;;;;8.45;3.83;;;29.10;61.50;;;;;;5039831;28;20032;-70
2022/08/19 09:30:21;;;;;;;20.58;4.90;;;29.30;61.40;;;;;;5069389;28;20051;-71
2022/08/19 09:32:48;;;;;;;20.30;6.05;;;29.40;63.20;;;;;;5048389;28;20033;-70
2022/08/19 09:35:14;;;;;;;6.65;4.47;;;29.50;61.20;;;;;;5052970;28;20064;-72
2022/08/19 09:37:42;;;;;;;5.55;3.88;;;29.60;64.70;;;;;;5061309;28;20050;-73
2022/08/19 09:40:10;;;;;;;4.10;3.55;;;29.50;58.30;;;;;;5070020;28;20017;-69
2022/08/19 09:42:37;;;;;;;5.75;3.28;;;29.50;60.20;;;;;;5069514;28;20440;-69
2022/08/19 09:45:04;;;;;;;7.13;3.72;;;29.50;61.10;;;;;;5071160;28;20040;-69
2022/08/19 09:47:30;;;;;;;5.85;3.97;;;29.40;61.20;;;;;;5069262;28;20032;-70
2022/08/19 09:49:57;;;;;;;7.63;4.28;;;29.60;65.90;;;;;;5070022;28;20036;-71
2022/08/19 09:52:23;;;;;;;5.07;4.13;;;30.00;67.40;;;;;;5069702;28;20124;-69
2022/08/19 09:54:53;;;;;;;4.97;3.72;;;30.60;67.80;;;;;;5071130;28;20057;-71
2022/08/19 09:57:19;;;;;;;3.60;3.30;;;30.80;61.90;;;;;;5069735;28;20037;-71
2022/08/19 09:59:45;;;;;;;10.75;3.75;;;30.50;60.20;;;;;;5071173;28;20102;-71
2022/08/19 10:02:11;;;;;;;4.00;3.65;;;30.30;60.00;;;;;;5070543;28;20028;-70
2022/08/19 10:07:22;;;;;;;3.65;3.35;;;30.10;59.50;;;;;;5053519;28;20116;-71
2022/08/19 10:09:48;;;;;;;5.22;4.45;;;29.90;59.90;;;;;;5054689;28;20124;-69
2022/08/19 10:12:15;;;;;;;12.13;4.18;;;30.10;60.20;;;;;;5057496;28;20032;-70
2022/08/19 10:14:41;;;;;;;6.45;3.42;;;30.00;57.70;;;;;;5054925;28;20029;-70
2022/08/19 10:17:08;;;;;;;7.30;3.28;;;29.90;59.00;;;;;;5055322;28;20112;-70
2022/08/19 10:19:35;;;;;;;5.45;3.63;;;29.80;59.60;;;;;;5056057;28;20147;-70
2022/08/19 10:22:07;;;;;;;4.85;3.35;;;29.80;60.10;;;;;;5054474;28;20064;-72
2022/08/19 10:24:34;;;;;;;4.45;3.70;;;29.90;60.30;;;;;;5054517;28;20024;-70
2022/08/19 10:27:05;;;;;;;8.32;3.55;;;29.80;60.40;;;;;;5054460;28;20039;-70
2022/08/19 10:29:34;;;;;;;9.77;3.70;;;29.80;60.30;;;;;;5054153;28;20036;-70
2022/08/19 10:32:07;;;;;;;5.65;3.88;;;29.90;60.60;;;;;;5054210;28;20459;-69
2022/08/19 10:34:34;;;;;;;4.43;3.97;;;29.80;60.30;;;;;;5056887;28;20032;-70
2022/08/19 10:37:01;;;;;;;7.50;3.80;;;29.80;59.40;;;;;;5064498;28;20036;-71
2022/08/19 10:39:29;;;;;;;6.65;3.42;;;29.70;60.50;;;;;;5074545;28;20040;-71
2022/08/19 10:41:56;;;;;;;3.28;2.97;;;29.80;60.40;;;;;;5056903;28;20154;-71
2022/08/19 10:44:28;;;;;;;8.48;3.40;;;29.70;60.50;;;;;;5054309;28;20027;-70
2022/08/19 10:46:54;;;;;;;6.93;3.20;;;29.60;61.00;;;;;;5054218;28;20044;-71
2022/08/19 10:49:20;;;;;;;14.02;3.38;;;29.80;61.00;;;;;;5056522;28;20470;-70
2022/08/19 10:57:17;;;;;;;3.53;3.22;;;29.70;60.10;;;;;;5054418;28;20057;-74
2022/08/19 10:59:44;;;;;;;5.47;3.08;;;29.60;60.80;;;;;;5052715;28;20021;-72
2022/08/19 11:02:11;;;;;;;5.07;3.13;;;29.60;61.20;;;;;;5052575;28;20359;-71
2022/08/19 11:04:39;;;;;;;5.95;3.63;;;29.60;61.40;;;;;;5052407;28;20029;-73
2022/08/19 11:07:06;;;;;;;4.82;3.00;;;29.70;61.60;;;;;;5055197;28;20036;-76
2022/08/19 11:09:38;;;;;;;2.45;2.25;;;29.70;61.50;;;;;;5049727;28;20048;-74
2022/08/19 11:12:05;;;;;;;6.70;2.97;;;29.70;61.80;;;;;;5051029;28;20032;-74
2022/08/19 11:14:33;;;;;;;7.70;3.13;;;29.60;61.60;;;;;;5052445;28;20029;-80
2022/08/19 11:16:59;;;;;;;7.63;3.15;;;29.70;61.30;;;;;;5052308;28;20108;-78
2022/08/19 11:19:25;;;;;;;3.58;2.85;;;29.50;61.70;;;;;;5051111;28;20090;-78
2022/08/19 11:21:53;;;;;;;6.78;3.20;;;29.60;61.50;;;;;;5051773;28;20041;-79
2022/08/19 11:24:25;;;;;;;4.28;2.63;;;29.60;61.30;;;;;;5046771;28;20056;-76
2022/08/19 11:26:58;;;;;;;3.10;2.38;;;29.50;61.50;;;;;;5051885;28;20080;-80
2022/08/19 11:29:27;;;;;;;7.95;3.35;;;29.50;61.50;;;;;;5050924;28;20129;-79
2022/08/19 11:31:54;;;;;;;5.22;2.75;;;29.60;61.50;;;;;;5051737;28;20044;-79
2022/08/19 11:34:23;;;;;;;2.60;2.40;;;29.50;61.40;;;;;;5050129;28;20033;-77
2022/08/19 11:36:50;;;;;;;5.10;2.78;;;29.70;61.50;;;;;;5055002;28;20032;-76
2022/08/19 11:39:20;;;;;;;8.50;2.70;;;29.60;61.60;;;;;;5052009;28;20033;-75
2022/08/19 11:41:46;;;;;;;6.63;2.85;;;29.60;61.60;;;;;;5049866;28;20421;-77
2022/08/19 11:44:13;;;;;;;5.93;2.80;;;29.60;61.50;;;;;;5049763;28;20369;-76
2022/08/19 11:46:45;;;;;;;4.43;2.53;;;29.70;61.60;;;;;;5060369;28;20048;-81
2022/08/19 11:49:11;;;;;;;2.92;2.65;;;29.50;60.90;;;;;;5051892;28;20447;-74
2022/08/19 11:51:37;;;;;;;3.85;2.55;;;29.60;61.00;;;;;;5048117;28;20036;-76
2022/08/19 11:54:05;;;;;;;3.70;2.60;;;29.60;60.70;;;;;;5062316;28;20582;-76
2022/08/19 11:56:32;;;;;;;5.43;2.83;;;29.60;60.60;;;;;;5051047;28;20043;-75
2022/08/19 11:58:58;;;;;;;4.43;2.63;;;29.60;60.70;;;;;;5051571;28;20167;-76
2022/08/19 12:01:26;;;;;;;6.05;3.00;;;29.50;60.90;;;;;;5052144;28;20041;-80
2022/08/19 12:03:54;;;;;;;6.07;3.03;;;29.40;60.90;;;;;;5050935;28;20223;-76
2022/08/19 12:06:25;;;;;;;3.88;2.47;;;29.50;61.20;;;;;;5049847;28;20032;-78
2022/08/19 12:08:51;;;;;;;2.65;1.42;;;29.50;60.50;;;;;;5053742;28;20039;-81
2022/08/19 12:11:18;;;;;;;4.10;2.60;;;29.60;61.00;;;;;;5055005;28;20052;-77
2022/08/19 12:13:45;;;;;;;4.32;2.85;;;29.40;60.20;;;;;;5066048;28;20043;-76
2022/08/19 12:16:18;;;;;;;3.53;3.10;;;29.40;58.80;;;;;;5072716;28;20031;-76
2022/08/19 12:18:46;;;;;;;10.63;3.58;;;29.50;57.80;;;;;;5060377;28;20116;-75
2022/08/19 12:21:18;;;;;;;3.00;2.70;;;29.50;58.70;;;;;;5052463;28;20090;-76
2022/08/19 12:23:45;;;;;;;3.33;2.38;;;29.60;57.80;;;;;;5051957;28;20032;-75
2022/08/19 12:26:11;;;;;;;7.60;2.83;;;29.70;59.40;;;;;;5051736;28;20040;-73
2022/08/19 12:28:38;;;;;;;5.10;2.50;;;29.70;60.00;;;;;;5052123;28;20418;-73
2022/08/19 12:31:05;;;;;;;6.32;2.30;;;29.70;60.00;;;;;;5051945;28;20103;-73
2022/08/19 12:33:31;;;;;;;7.07;2.65;;;29.60;59.80;;;;;;5051675;28;20036;-72
2022/08/19 12:36:03;;;;;;;7.25;2.22;;;29.60;59.90;;;;;;5052273;28;20390;-73
2022/08/19 12:38:29;;;;;;;4.35;2.60;;;29.60;59.90;;;;;;5051859;28;20068;-74
2022/08/19 12:40:56;;;;;;;3.17;2.47;;;29.60;60.10;;;;;;5051908;28;20048;-74
2022/08/19 12:43:22;;;;;;;6.30;3.45;;;29.70;60.10;;;;;;5050427;28;20133;-74
2022/08/19 12:45:48;;;;;;;5.38;2.83;;;29.70;60.10;;;;;;5051913;28;20108;-73
2022/08/19 12:48:16;;;;;;;6.90;3.45;;;29.60;60.30;;;;;;5051657;28;20037;-74
2022/08/19 12:50:47;;;;;;;5.93;2.55;;;29.60;60.30;;;;;;5050405;28;20369;-73
2022/08/19 12:53:13;;;;;;;3.25;2.72;;;29.60;59.90;;;;;;5051424;28;20033;-73
2022/08/19 12:55:40;;;;;;;4.45;2.05;;;29.60;60.40;;;;;;5051593;28;20417;-73
2022/08/19 12:58:06;;;;;;;7.53;2.80;;;29.70;60.60;;;;;;5051719;28;20652;-73
2022/08/19 13:00:32;;;;;;;2.80;2.53;;;29.50;60.70;;;;;;5051489;28;20061;-73
2022/08/19 13:02:59;;;;;;;4.88;2.83;;;29.60;60.60;;;;;;5049060;28;20488;-71
2022/08/19 13:05:31;;;;;;;11.48;2.83;;;29.50;60.70;;;;;;5047558;28;20496;-72
2022/08/19 13:07:59;;;;;;;4.20;2.42;;;29.60;60.70;;;;;;5048991;28;20035;-72
2022/08/19 13:10:29;;;;;;;8.02;2.13;;;29.50;60.80;;;;;;5048911;28;20041;-71
2022/08/19 13:12:56;;;;;;;4.50;2.55;;;29.50;60.80;;;;;;5048392;28;20101;-74
2022/08/19 13:15:23;;;;;;;4.13;2.78;;;29.60;60.70;;;;;;5048218;28;20082;-76